sensor_id;sensor_type;location;lat;lon;timestamp;pressure;altitude;pressure_sealevel;temperature;humidity
37856;BME280;23694;43.274;26.924;2024-01-15T00:00:29;98312.97;;;1.76;49.44
37856;BME280;23694;43.274;26.924;2024-01-15T00:02:55;98312.28;;;1.91;49.77
37856;BME280;23694;43.274;26.924;2024-01-15T00:05:23;98307.13;;;1.91;49.81
37856;BME280;23694;43.274;26.924;2024-01-15T00:07:49;98312.16;;;1.94;49.26
37856;BME280;23694;43.274;26.924;2024-01-15T00:10:15;98310.88;;;1.84;49.92
37856;BME280;23694;43.274;26.924;2024-01-15T00:12:41;98313.34;;;1.87;50.04
37856;BME280;23694;43.274;26.924;2024-01-15T00:15:07;98306.13;;;1.75;49.88
37856;BME280;23694;43.274;26.924;2024-01-15T00:17:33;98316.13;;;1.62;50.40
37856;BME280;23694;43.274;26.924;2024-01-15T00:19:59;98311.75;;;1.44;51.21
37856;BME280;23694;43.274;26.924;2024-01-15T00:22:26;98319.59;;;1.41;51.34
37856;BME280;23694;43.274;26.924;2024-01-15T00:24:53;98321.22;;;1.43;51.42
37856;BME280;23694;43.274;26.924;2024-01-15T00:27:19;98312.78;;;1.40;51.34
37856;BME280;23694;43.274;26.924;2024-01-15T00:29:45;98320.00;;;1.32;51.75
37856;BME280;23694;43.274;26.924;2024-01-15T00:32:11;98315.88;;;1.26;51.71
37856;BME280;23694;43.274;26.924;2024-01-15T00:34:37;98317.16;;;1.38;51.55
37856;BME280;23694;43.274;26.924;2024-01-15T00:37:03;98319.66;;;1.39;50.93
37856;BME280;23694;43.274;26.924;2024-01-15T00:39:33;98298.19;;;1.39;50.78
37856;BME280;23694;43.274;26.924;2024-01-15T00:41:59;98312.50;;;1.46;50.53
37856;BME280;23694;43.274;26.924;2024-01-15T00:44:25;98304.44;;;1.53;50.36
37856;BME280;23694;43.274;26.924;2024-01-15T00:46:51;98315.69;;;1.52;50.94
37856;BME280;23694;43.274;26.924;2024-01-15T00:49:17;98308.78;;;1.53;50.96
37856;BME280;23694;43.274;26.924;2024-01-15T00:51:43;98301.09;;;1.51;51.08
37856;BME280;23694;43.274;26.924;2024-01-15T00:54:09;98299.94;;;1.58;50.83
37856;BME280;23694;43.274;26.924;2024-01-15T00:56:36;98305.66;;;1.65;50.96
37856;BME280;23694;43.274;26.924;2024-01-15T00:59:02;98299.22;;;1.75;50.80
37856;BME280;23694;43.274;26.924;2024-01-15T01:01:29;98304.50;;;1.72;50.31
37856;BME280;23694;43.274;26.924;2024-01-15T01:03:55;98300.38;;;1.68;50.24
37856;BME280;23694;43.274;26.924;2024-01-15T01:06:22;98299.03;;;1.59;51.23
37856;BME280;23694;43.274;26.924;2024-01-15T01:08:49;98298.91;;;1.42;51.98
37856;BME280;23694;43.274;26.924;2024-01-15T01:11:15;98302.91;;;1.49;52.07
37856;BME280;23694;43.274;26.924;2024-01-15T01:13:42;98295.66;;;1.57;52.14
37856;BME280;23694;43.274;26.924;2024-01-15T01:16:09;98293.88;;;1.39;54.48
37856;BME280;23694;43.274;26.924;2024-01-15T01:18:35;98294.78;;;1.38;55.54
37856;BME280;23694;43.274;26.924;2024-01-15T01:21:02;98294.69;;;0.98;57.16
37856;BME280;23694;43.274;26.924;2024-01-15T01:23:28;98295.88;;;1.11;57.78
37856;BME280;23694;43.274;26.924;2024-01-15T01:25:54;98286.50;;;0.88;58.88
37856;BME280;23694;43.274;26.924;2024-01-15T01:28:20;98293.56;;;0.83;59.54
37856;BME280;23694;43.274;26.924;2024-01-15T01:30:46;98285.31;;;0.75;60.17
37856;BME280;23694;43.274;26.924;2024-01-15T01:33:12;98286.25;;;0.72;60.53
37856;BME280;23694;43.274;26.924;2024-01-15T01:35:39;98278.34;;;0.77;61.02
37856;BME280;23694;43.274;26.924;2024-01-15T01:38:05;98280.84;;;0.56;61.45
37856;BME280;23694;43.274;26.924;2024-01-15T01:40:31;98280.38;;;0.69;61.87
37856;BME280;23694;43.274;26.924;2024-01-15T01:42:57;98282.63;;;0.54;62.61
37856;BME280;23694;43.274;26.924;2024-01-15T01:45:23;98278.06;;;0.61;62.73
37856;BME280;23694;43.274;26.924;2024-01-15T01:47:49;98273.16;;;0.55;63.04
37856;BME280;23694;43.274;26.924;2024-01-15T01:50:16;98271.97;;;0.42;63.60
37856;BME280;23694;43.274;26.924;2024-01-15T01:52:43;98275.84;;;0.30;64.56
37856;BME280;23694;43.274;26.924;2024-01-15T01:55:10;98275.97;;;0.27;64.97
37856;BME280;23694;43.274;26.924;2024-01-15T01:57:37;98279.00;;;0.15;66.02
37856;BME280;23694;43.274;26.924;2024-01-15T02:00:04;98279.53;;;-0.01;66.95
37856;BME280;23694;43.274;26.924;2024-01-15T02:02:32;98277.88;;;0.22;64.49
37856;BME280;23694;43.274;26.924;2024-01-15T02:04:59;98273.06;;;0.13;66.06
37856;BME280;23694;43.274;26.924;2024-01-15T02:07:25;98271.69;;;0.26;65.69
37856;BME280;23694;43.274;26.924;2024-01-15T02:09:51;98271.00;;;0.44;64.85
37856;BME280;23694;43.274;26.924;2024-01-15T02:12:18;98271.97;;;0.42;64.58
37856;BME280;23694;43.274;26.924;2024-01-15T02:14:44;98262.97;;;0.52;63.16
37856;BME280;23694;43.274;26.924;2024-01-15T02:17:10;98266.97;;;0.37;61.86
37856;BME280;23694;43.274;26.924;2024-01-15T02:19:36;98268.25;;;0.49;61.51
37856;BME280;23694;43.274;26.924;2024-01-15T02:22:02;98261.72;;;0.62;61.87
37856;BME280;23694;43.274;26.924;2024-01-15T02:24:28;98263.75;;;0.54;61.51
37856;BME280;23694;43.274;26.924;2024-01-15T02:26:55;98266.09;;;0.38;62.86
37856;BME280;23694;43.274;26.924;2024-01-15T02:29:21;98263.75;;;0.32;62.24
37856;BME280;23694;43.274;26.924;2024-01-15T02:31:47;98262.31;;;0.47;61.61
37856;BME280;23694;43.274;26.924;2024-01-15T02:34:13;98263.88;;;0.51;61.92
37856;BME280;23694;43.274;26.924;2024-01-15T02:36:39;98255.28;;;0.28;63.51
37856;BME280;23694;43.274;26.924;2024-01-15T02:39:05;98252.84;;;0.25;63.93
37856;BME280;23694;43.274;26.924;2024-01-15T02:41:31;98250.81;;;0.34;63.66
37856;BME280;23694;43.274;26.924;2024-01-15T02:43:57;98249.00;;;0.36;63.80
37856;BME280;23694;43.274;26.924;2024-01-15T02:46:23;98249.38;;;0.48;63.29
37856;BME280;23694;43.274;26.924;2024-01-15T02:48:50;98247.03;;;0.42;64.54
37856;BME280;23694;43.274;26.924;2024-01-15T02:51:16;98246.78;;;0.48;64.89
37856;BME280;23694;43.274;26.924;2024-01-15T02:53:42;98243.50;;;0.23;66.11
37856;BME280;23694;43.274;26.924;2024-01-15T02:56:08;98241.69;;;0.25;66.30
37856;BME280;23694;43.274;26.924;2024-01-15T02:58:35;98245.88;;;0.27;66.20
37856;BME280;23694;43.274;26.924;2024-01-15T03:01:02;98242.28;;;0.31;65.15
37856;BME280;23694;43.274;26.924;2024-01-15T03:03:28;98244.72;;;0.13;65.98
37856;BME280;23694;43.274;26.924;2024-01-15T03:05:54;98245.22;;;-0.01;67.07
37856;BME280;23694;43.274;26.924;2024-01-15T03:08:20;98244.34;;;0.00;67.78
37856;BME280;23694;43.274;26.924;2024-01-15T03:10:48;98245.13;;;0.02;68.25
37856;BME280;23694;43.274;26.924;2024-01-15T03:13:14;98240.56;;;-0.15;68.75
37856;BME280;23694;43.274;26.924;2024-01-15T03:15:40;98227.72;;;-0.15;68.37
37856;BME280;23694;43.274;26.924;2024-01-15T03:18:06;98233.06;;;-0.21;68.67
37856;BME280;23694;43.274;26.924;2024-01-15T03:20:32;98238.50;;;-0.28;69.83
37856;BME280;23694;43.274;26.924;2024-01-15T03:22:58;98236.94;;;-0.09;69.17
37856;BME280;23694;43.274;26.924;2024-01-15T03:25:25;98231.97;;;-0.14;69.38
37856;BME280;23694;43.274;26.924;2024-01-15T03:27:51;98229.72;;;-0.23;69.87
37856;BME280;23694;43.274;26.924;2024-01-15T03:30:17;98230.06;;;-0.32;70.41
37856;BME280;23694;43.274;26.924;2024-01-15T03:32:43;98232.88;;;-0.63;72.13
37856;BME280;23694;43.274;26.924;2024-01-15T03:35:10;98228.41;;;-0.58;72.61
37856;BME280;23694;43.274;26.924;2024-01-15T03:37:36;98233.31;;;-0.77;73.69
37856;BME280;23694;43.274;26.924;2024-01-15T03:40:05;98235.06;;;-0.77;73.90
37856;BME280;23694;43.274;26.924;2024-01-15T03:42:34;98235.72;;;-0.97;74.90
37856;BME280;23694;43.274;26.924;2024-01-15T03:45:01;98235.88;;;-1.02;75.41
37856;BME280;23694;43.274;26.924;2024-01-15T03:47:28;98231.84;;;-0.84;75.37
37856;BME280;23694;43.274;26.924;2024-01-15T03:49:54;98236.25;;;-0.87;75.47
37856;BME280;23694;43.274;26.924;2024-01-15T03:52:21;98233.69;;;-0.87;75.69
37856;BME280;23694;43.274;26.924;2024-01-15T03:54:47;98224.44;;;-0.68;74.91
37856;BME280;23694;43.274;26.924;2024-01-15T03:57:13;98230.31;;;-0.63;75.34
37856;BME280;23694;43.274;26.924;2024-01-15T03:59:40;98233.78;;;-0.66;75.96
37856;BME280;23694;43.274;26.924;2024-01-15T04:02:07;98240.47;;;-0.85;76.45
37856;BME280;23694;43.274;26.924;2024-01-15T04:04:33;98238.88;;;-0.89;77.61
37856;BME280;23694;43.274;26.924;2024-01-15T04:06:59;98243.50;;;-0.74;77.08
37856;BME280;23694;43.274;26.924;2024-01-15T04:09:26;98237.81;;;-0.57;76.42
37856;BME280;23694;43.274;26.924;2024-01-15T04:11:52;98234.81;;;-0.45;75.92
37856;BME280;23694;43.274;26.924;2024-01-15T04:14:18;98236.88;;;-0.54;75.81
37856;BME280;23694;43.274;26.924;2024-01-15T04:16:44;98232.69;;;-0.34;75.02
37856;BME280;23694;43.274;26.924;2024-01-15T04:19:11;98242.75;;;-0.51;74.97
37856;BME280;23694;43.274;26.924;2024-01-15T04:21:37;98243.13;;;-0.61;75.89
37856;BME280;23694;43.274;26.924;2024-01-15T04:24:05;98246.13;;;-0.75;76.04
37856;BME280;23694;43.274;26.924;2024-01-15T04:26:31;98240.00;;;-0.71;75.51
37856;BME280;23694;43.274;26.924;2024-01-15T04:28:57;98248.88;;;-0.55;75.06
37856;BME280;23694;43.274;26.924;2024-01-15T04:31:25;98251.28;;;-0.50;75.28
37856;BME280;23694;43.274;26.924;2024-01-15T04:33:52;98250.28;;;-0.46;74.50
37856;BME280;23694;43.274;26.924;2024-01-15T04:36:19;98252.56;;;-0.62;75.03
37856;BME280;23694;43.274;26.924;2024-01-15T04:38:45;98260.91;;;-0.55;75.71
37856;BME280;23694;43.274;26.924;2024-01-15T04:41:12;98258.66;;;-0.65;75.92
37856;BME280;23694;43.274;26.924;2024-01-15T04:43:39;98255.72;;;-0.80;76.41
37856;BME280;23694;43.274;26.924;2024-01-15T04:46:06;98263.53;;;-0.83;77.05
37856;BME280;23694;43.274;26.924;2024-01-15T04:48:33;98264.78;;;-0.95;77.90
37856;BME280;23694;43.274;26.924;2024-01-15T04:50:59;98250.41;;;-1.01;77.86
37856;BME280;23694;43.274;26.924;2024-01-15T04:53:26;98261.59;;;-1.02;78.63
37856;BME280;23694;43.274;26.924;2024-01-15T04:55:52;98258.47;;;-0.85;77.55
37856;BME280;23694;43.274;26.924;2024-01-15T04:58:18;98257.75;;;-1.15;78.97
37856;BME280;23694;43.274;26.924;2024-01-15T05:00:44;98260.31;;;-1.15;79.89
37856;BME280;23694;43.274;26.924;2024-01-15T05:03:10;98255.13;;;-1.13;80.45
37856;BME280;23694;43.274;26.924;2024-01-15T05:05:37;98261.34;;;-1.20;81.05
37856;BME280;23694;43.274;26.924;2024-01-15T05:08:03;98253.38;;;-1.13;81.19
37856;BME280;23694;43.274;26.924;2024-01-15T05:10:29;98252.84;;;-0.96;80.42
37856;BME280;23694;43.274;26.924;2024-01-15T05:12:56;98249.16;;;-0.89;80.28
37856;BME280;23694;43.274;26.924;2024-01-15T05:15:23;98244.81;;;-0.87;79.78
37856;BME280;23694;43.274;26.924;2024-01-15T05:17:49;98238.31;;;-0.72;78.55
37856;BME280;23694;43.274;26.924;2024-01-15T05:20:16;98238.31;;;-0.72;78.76
37856;BME280;23694;43.274;26.924;2024-01-15T05:22:42;98243.25;;;-0.91;79.38
37856;BME280;23694;43.274;26.924;2024-01-15T05:25:08;98239.41;;;-0.79;78.76
37856;BME280;23694;43.274;26.924;2024-01-15T05:27:35;98230.34;;;-0.65;77.67
37856;BME280;23694;43.274;26.924;2024-01-15T05:30:03;98231.22;;;-0.66;77.77
37856;BME280;23694;43.274;26.924;2024-01-15T05:32:31;98233.63;;;-0.86;79.11
37856;BME280;23694;43.274;26.924;2024-01-15T05:34:57;98232.09;;;-0.65;78.16
37856;BME280;23694;43.274;26.924;2024-01-15T05:37:24;98221.19;;;-0.73;78.07
37856;BME280;23694;43.274;26.924;2024-01-15T05:39:51;98228.56;;;-0.87;79.26
37856;BME280;23694;43.274;26.924;2024-01-15T05:42:17;98222.66;;;-0.66;77.88
37856;BME280;23694;43.274;26.924;2024-01-15T05:44:43;98230.19;;;-0.60;76.90
37856;BME280;23694;43.274;26.924;2024-01-15T05:47:09;98227.56;;;-0.83;77.67
37856;BME280;23694;43.274;26.924;2024-01-15T05:49:36;98221.03;;;-0.69;77.84
37856;BME280;23694;43.274;26.924;2024-01-15T05:52:02;98231.44;;;-0.72;78.14
37856;BME280;23694;43.274;26.924;2024-01-15T05:54:29;98220.09;;;-0.91;78.89
37856;BME280;23694;43.274;26.924;2024-01-15T05:56:55;98225.16;;;-0.63;79.89
37856;BME280;23694;43.274;26.924;2024-01-15T05:59:21;98236.75;;;-0.05;78.97
37856;BME280;23694;43.274;26.924;2024-01-15T06:01:47;98232.03;;;0.95;73.07
37856;BME280;23694;43.274;26.924;2024-01-15T06:04:13;98230.63;;;1.49;69.68
37856;BME280;23694;43.274;26.924;2024-01-15T06:06:40;98223.66;;;2.28;64.68
37856;BME280;23694;43.274;26.924;2024-01-15T06:09:06;98233.69;;;2.72;62.20
37856;BME280;23694;43.274;26.924;2024-01-15T06:11:32;98230.53;;;3.01;60.41
37856;BME280;23694;43.274;26.924;2024-01-15T06:13:58;98225.41;;;3.85;57.28
37856;BME280;23694;43.274;26.924;2024-01-15T06:16:26;98236.59;;;4.34;54.50
37856;BME280;23694;43.274;26.924;2024-01-15T06:18:52;98226.47;;;4.76;53.42
37856;BME280;23694;43.274;26.924;2024-01-15T06:21:18;98219.41;;;5.68;48.23
37856;BME280;23694;43.274;26.924;2024-01-15T06:23:45;98223.66;;;6.55;46.60
37856;BME280;23694;43.274;26.924;2024-01-15T06:26:14;98215.78;;;7.74;44.12
37856;BME280;23694;43.274;26.924;2024-01-15T06:28:40;98218.41;;;8.61;41.63
37856;BME280;23694;43.274;26.924;2024-01-15T06:31:07;98207.63;;;9.71;38.91
37856;BME280;23694;43.274;26.924;2024-01-15T06:33:33;98210.75;;;9.87;38.24
37856;BME280;23694;43.274;26.924;2024-01-15T06:36:00;98197.00;;;11.37;35.22
37856;BME280;23694;43.274;26.924;2024-01-15T06:38:26;98209.03;;;12.42;33.64
37856;BME280;23694;43.274;26.924;2024-01-15T06:40:52;98202.50;;;13.44;31.73
37856;BME280;23694;43.274;26.924;2024-01-15T06:43:19;98200.84;;;14.46;29.74
37856;BME280;23694;43.274;26.924;2024-01-15T06:45:45;98200.91;;;15.35;28.25
37856;BME280;23694;43.274;26.924;2024-01-15T06:48:11;98201.16;;;16.20;26.90
37856;BME280;23694;43.274;26.924;2024-01-15T06:50:43;98187.19;;;16.35;25.98
37856;BME280;23694;43.274;26.924;2024-01-15T06:53:09;98195.63;;;15.35;27.21
37856;BME280;23694;43.274;26.924;2024-01-15T06:55:35;98198.25;;;15.71;26.86
37856;BME280;23694;43.274;26.924;2024-01-15T06:58:02;98194.72;;;15.88;26.39
37856;BME280;23694;43.274;26.924;2024-01-15T07:00:29;98200.13;;;15.43;26.67
37856;BME280;23694;43.274;26.924;2024-01-15T07:02:55;98200.34;;;14.23;28.07
37856;BME280;23694;43.274;26.924;2024-01-15T07:05:21;98186.16;;;13.12;29.33
37856;BME280;23694;43.274;26.924;2024-01-15T07:07:47;98186.88;;;13.23;30.08
37856;BME280;23694;43.274;26.924;2024-01-15T07:10:14;98182.25;;;13.74;29.32
37856;BME280;23694;43.274;26.924;2024-01-15T07:12:43;98182.34;;;14.19;28.79
37856;BME280;23694;43.274;26.924;2024-01-15T07:15:10;98183.84;;;14.21;28.72
37856;BME280;23694;43.274;26.924;2024-01-15T07:17:37;98190.63;;;13.96;28.87
37856;BME280;23694;43.274;26.924;2024-01-15T07:20:07;98192.59;;;13.85;29.16
37856;BME280;23694;43.274;26.924;2024-01-15T07:22:36;98185.31;;;13.59;29.49
37856;BME280;23694;43.274;26.924;2024-01-15T07:25:03;98184.78;;;14.03;29.24
37856;BME280;23694;43.274;26.924;2024-01-15T07:27:31;98186.03;;;14.26;28.85
37856;BME280;23694;43.274;26.924;2024-01-15T07:29:58;98188.91;;;14.05;28.72
37856;BME280;23694;43.274;26.924;2024-01-15T07:32:24;98190.47;;;13.03;29.13
37856;BME280;23694;43.274;26.924;2024-01-15T07:34:50;98200.06;;;12.45;30.50
37856;BME280;23694;43.274;26.924;2024-01-15T07:37:17;98192.47;;;12.51;30.08
37856;BME280;23694;43.274;26.924;2024-01-15T07:39:43;98174.75;;;12.03;31.55
37856;BME280;23694;43.274;26.924;2024-01-15T07:42:09;98175.22;;;12.78;29.82
37856;BME280;23694;43.274;26.924;2024-01-15T07:44:35;98177.28;;;13.71;29.36
37856;BME280;23694;43.274;26.924;2024-01-15T07:47:02;98180.03;;;13.69;28.13
37856;BME280;23694;43.274;26.924;2024-01-15T07:49:29;98189.13;;;12.40;29.62
37856;BME280;23694;43.274;26.924;2024-01-15T07:51:55;98178.09;;;12.55;29.36
37856;BME280;23694;43.274;26.924;2024-01-15T07:54:22;98172.06;;;13.13;28.56
37856;BME280;23694;43.274;26.924;2024-01-15T07:57:02;98164.22;;;13.79;28.59
37856;BME280;23694;43.274;26.924;2024-01-15T07:59:31;98167.50;;;14.55;27.22
37856;BME280;23694;43.274;26.924;2024-01-15T08:01:59;98168.44;;;14.99;26.38
37856;BME280;23694;43.274;26.924;2024-01-15T08:04:25;98169.78;;;15.21;26.18
37856;BME280;23694;43.274;26.924;2024-01-15T08:06:51;98163.81;;;15.37;25.70
37856;BME280;23694;43.274;26.924;2024-01-15T08:09:18;98164.16;;;15.42;25.67
37856;BME280;23694;43.274;26.924;2024-01-15T08:11:44;98159.09;;;15.05;25.77
37856;BME280;23694;43.274;26.924;2024-01-15T08:14:11;98160.72;;;15.23;25.44
37856;BME280;23694;43.274;26.924;2024-01-15T08:16:38;98159.41;;;15.45;24.82
37856;BME280;23694;43.274;26.924;2024-01-15T08:19:05;98158.94;;;15.06;25.44
37856;BME280;23694;43.274;26.924;2024-01-15T08:21:31;98159.16;;;15.13;25.38
37856;BME280;23694;43.274;26.924;2024-01-15T08:23:59;98157.66;;;14.75;25.90
37856;BME280;23694;43.274;26.924;2024-01-15T08:26:25;98158.06;;;14.25;26.38
37856;BME280;23694;43.274;26.924;2024-01-15T08:28:51;98156.13;;;12.95;27.83
37856;BME280;23694;43.274;26.924;2024-01-15T08:31:18;98153.22;;;12.69;28.59
37856;BME280;23694;43.274;26.924;2024-01-15T08:33:44;98150.63;;;11.37;29.97
37856;BME280;23694;43.274;26.924;2024-01-15T08:36:11;98147.38;;;12.36;28.32
37856;BME280;23694;43.274;26.924;2024-01-15T08:38:37;98147.00;;;13.09;27.60
37856;BME280;23694;43.274;26.924;2024-01-15T08:41:03;98145.00;;;14.33;26.27
37856;BME280;23694;43.274;26.924;2024-01-15T08:43:30;98142.31;;;15.32;24.98
37856;BME280;23694;43.274;26.924;2024-01-15T08:45:59;98148.53;;;16.26;23.94
37856;BME280;23694;43.274;26.924;2024-01-15T08:48:26;98136.59;;;16.72;23.23
37856;BME280;23694;43.274;26.924;2024-01-15T08:50:56;98136.72;;;15.78;24.29
37856;BME280;23694;43.274;26.924;2024-01-15T08:53:22;98143.91;;;16.28;23.92
37856;BME280;23694;43.274;26.924;2024-01-15T08:55:49;98128.03;;;17.43;23.31
37856;BME280;23694;43.274;26.924;2024-01-15T08:58:15;98118.56;;;18.52;21.65
37856;BME280;23694;43.274;26.924;2024-01-15T09:00:42;98116.16;;;18.42;21.26
37856;BME280;23694;43.274;26.924;2024-01-15T09:03:08;98107.66;;;17.77;21.99
37856;BME280;23694;43.274;26.924;2024-01-15T09:05:35;98107.50;;;17.70;21.84
37856;BME280;23694;43.274;26.924;2024-01-15T09:08:01;98109.81;;;17.49;21.60
37856;BME280;23694;43.274;26.924;2024-01-15T09:10:27;98103.97;;;13.10;24.40
37856;BME280;23694;43.274;26.924;2024-01-15T09:12:53;98116.72;;;11.97;26.57
37856;BME280;23694;43.274;26.924;2024-01-15T09:15:20;98109.63;;;11.36;27.46
37856;BME280;23694;43.274;26.924;2024-01-15T09:17:46;98099.53;;;10.26;29.26
37856;BME280;23694;43.274;26.924;2024-01-15T09:20:12;98087.81;;;9.53;30.59
37856;BME280;23694;43.274;26.924;2024-01-15T09:22:38;98089.41;;;8.52;32.73
37856;BME280;23694;43.274;26.924;2024-01-15T09:25:08;98081.06;;;8.47;32.54
37856;BME280;23694;43.274;26.924;2024-01-15T09:27:36;98073.59;;;8.06;33.34
37856;BME280;23694;43.274;26.924;2024-01-15T09:30:03;98082.19;;;7.21;35.12
37856;BME280;23694;43.274;26.924;2024-01-15T09:32:29;98078.72;;;6.95;35.81
37856;BME280;23694;43.274;26.924;2024-01-15T09:34:55;98074.22;;;6.59;37.32
37856;BME280;23694;43.274;26.924;2024-01-15T09:37:22;98074.34;;;7.08;36.75
37856;BME280;23694;43.274;26.924;2024-01-15T09:39:49;98060.31;;;6.98;37.41
37856;BME280;23694;43.274;26.924;2024-01-15T09:42:16;98051.03;;;6.81;37.75
37856;BME280;23694;43.274;26.924;2024-01-15T09:44:43;98038.13;;;6.80;38.05
37856;BME280;23694;43.274;26.924;2024-01-15T09:47:09;98035.03;;;5.67;40.35
37856;BME280;23694;43.274;26.924;2024-01-15T09:49:36;98029.06;;;5.79;41.15
37856;BME280;23694;43.274;26.924;2024-01-15T09:52:04;98016.88;;;6.21;40.08
37856;BME280;23694;43.274;26.924;2024-01-15T09:54:32;98021.91;;;5.97;41.13
37856;BME280;23694;43.274;26.924;2024-01-15T09:57:00;98022.28;;;6.57;40.09
37856;BME280;23694;43.274;26.924;2024-01-15T09:59:27;98024.88;;;6.57;40.43
37856;BME280;23694;43.274;26.924;2024-01-15T10:01:55;98015.09;;;6.74;40.07
37856;BME280;23694;43.274;26.924;2024-01-15T10:04:23;98012.50;;;6.61;40.26
37856;BME280;23694;43.274;26.924;2024-01-15T10:06:51;98017.28;;;6.54;40.83
37856;BME280;23694;43.274;26.924;2024-01-15T10:09:18;97998.28;;;6.40;41.17
37856;BME280;23694;43.274;26.924;2024-01-15T10:11:44;97997.19;;;6.69;41.20
37856;BME280;23694;43.274;26.924;2024-01-15T10:14:12;97990.84;;;6.86;40.75
37856;BME280;23694;43.274;26.924;2024-01-15T10:16:39;97987.00;;;6.91;40.62
37856;BME280;23694;43.274;26.924;2024-01-15T10:19:05;97988.22;;;7.11;39.96
37856;BME280;23694;43.274;26.924;2024-01-15T10:21:32;97986.16;;;7.16;40.29
37856;BME280;23694;43.274;26.924;2024-01-15T10:24:03;97977.38;;;7.30;39.49
37856;BME280;23694;43.274;26.924;2024-01-15T10:26:32;97956.66;;;7.52;39.29
37856;BME280;23694;43.274;26.924;2024-01-15T10:28:59;97956.72;;;7.63;39.00
37856;BME280;23694;43.274;26.924;2024-01-15T10:31:27;97952.25;;;8.24;37.53
37856;BME280;23694;43.274;26.924;2024-01-15T10:33:53;97954.19;;;8.80;36.07
37856;BME280;23694;43.274;26.924;2024-01-15T10:36:19;97945.41;;;8.81;36.50
37856;BME280;23694;43.274;26.924;2024-01-15T10:38:46;97942.56;;;8.73;37.34
37856;BME280;23694;43.274;26.924;2024-01-15T10:41:12;97922.50;;;8.84;36.93
37856;BME280;23694;43.274;26.924;2024-01-15T10:43:39;97922.75;;;8.70;37.30
37856;BME280;23694;43.274;26.924;2024-01-15T10:46:07;97924.28;;;8.62;36.58
37856;BME280;23694;43.274;26.924;2024-01-15T10:48:34;97920.84;;;8.72;36.84
37856;BME280;23694;43.274;26.924;2024-01-15T10:51:02;97914.78;;;8.83;36.90
37856;BME280;23694;43.274;26.924;2024-01-15T10:53:38;97916.44;;;8.95;36.75
37856;BME280;23694;43.274;26.924;2024-01-15T10:56:10;97912.88;;;8.63;36.90
37856;BME280;23694;43.274;26.924;2024-01-15T10:58:39;97917.88;;;8.66;36.81
37856;BME280;23694;43.274;26.924;2024-01-15T11:01:06;97909.22;;;8.65;36.59
37856;BME280;23694;43.274;26.924;2024-01-15T11:03:35;97892.47;;;8.56;37.39
37856;BME280;23694;43.274;26.924;2024-01-15T11:06:02;97894.13;;;8.69;36.98
37856;BME280;23694;43.274;26.924;2024-01-15T11:08:29;97901.63;;;8.62;36.62
37856;BME280;23694;43.274;26.924;2024-01-15T11:10:56;97894.38;;;8.66;36.19
37856;BME280;23694;43.274;26.924;2024-01-15T11:13:43;97885.59;;;8.55;35.74
37856;BME280;23694;43.274;26.924;2024-01-15T11:16:11;97871.94;;;8.52;36.83
37856;BME280;23694;43.274;26.924;2024-01-15T11:19:02;97875.19;;;8.20;37.64
37856;BME280;23694;43.274;26.924;2024-01-15T11:21:29;97880.59;;;8.06;37.90
37856;BME280;23694;43.274;26.924;2024-01-15T11:24:00;97885.56;;;7.74;38.92
37856;BME280;23694;43.274;26.924;2024-01-15T11:26:44;97875.16;;;7.74;38.87
37856;BME280;23694;43.274;26.924;2024-01-15T11:29:35;97870.50;;;7.90;38.54
37856;BME280;23694;43.274;26.924;2024-01-15T11:32:05;97866.69;;;7.83;38.92
37856;BME280;23694;43.274;26.924;2024-01-15T11:37:17;97857.56;;;7.89;39.20
37856;BME280;23694;43.274;26.924;2024-01-15T11:39:43;97860.97;;;7.54;39.77
37856;BME280;23694;43.274;26.924;2024-01-15T11:42:11;97861.94;;;7.53;39.99
37856;BME280;23694;43.274;26.924;2024-01-15T11:44:38;97859.41;;;7.76;39.34
37856;BME280;23694;43.274;26.924;2024-01-15T11:47:11;97851.81;;;7.73;39.80
37856;BME280;23694;43.274;26.924;2024-01-15T11:50:02;97850.81;;;7.86;39.76
37856;BME280;23694;43.274;26.924;2024-01-15T11:52:35;97841.94;;;7.89;39.53
37856;BME280;23694;43.274;26.924;2024-01-15T11:55:16;97840.16;;;8.01;39.61
37856;BME280;23694;43.274;26.924;2024-01-15T11:57:54;97831.91;;;8.29;39.08
37856;BME280;23694;43.274;26.924;2024-01-15T12:00:22;97827.28;;;8.33;38.34
37856;BME280;23694;43.274;26.924;2024-01-15T12:02:49;97815.19;;;8.32;38.86
37856;BME280;23694;43.274;26.924;2024-01-15T12:05:19;97819.59;;;8.42;39.18
37856;BME280;23694;43.274;26.924;2024-01-15T12:07:48;97803.22;;;8.29;38.95
37856;BME280;23694;43.274;26.924;2024-01-15T12:10:21;97816.72;;;8.23;39.44
37856;BME280;23694;43.274;26.924;2024-01-15T12:15:14;97809.25;;;8.07;39.46
37856;BME280;23694;43.274;26.924;2024-01-15T12:17:41;97810.19;;;8.17;39.94
37856;BME280;23694;43.274;26.924;2024-01-15T12:20:07;97816.72;;;8.01;40.61
37856;BME280;23694;43.274;26.924;2024-01-15T12:22:34;97817.88;;;7.85;41.03
37856;BME280;23694;43.274;26.924;2024-01-15T12:25:00;97813.81;;;7.81;40.63
37856;BME280;23694;43.274;26.924;2024-01-15T12:27:26;97812.06;;;7.82;41.22
37856;BME280;23694;43.274;26.924;2024-01-15T12:29:53;97815.41;;;7.95;40.87
37856;BME280;23694;43.274;26.924;2024-01-15T12:32:19;97811.50;;;8.12;40.85
37856;BME280;23694;43.274;26.924;2024-01-15T12:34:49;97811.31;;;8.37;40.15
37856;BME280;23694;43.274;26.924;2024-01-15T12:37:18;97803.63;;;8.58;40.18
37856;BME280;23694;43.274;26.924;2024-01-15T12:39:46;97795.06;;;8.56;39.89
37856;BME280;23694;43.274;26.924;2024-01-15T12:42:14;97784.97;;;8.63;39.13
37856;BME280;23694;43.274;26.924;2024-01-15T12:44:41;97783.41;;;8.82;38.25
37856;BME280;23694;43.274;26.924;2024-01-15T12:47:07;97775.69;;;9.24;38.29
37856;BME280;23694;43.274;26.924;2024-01-15T12:49:38;97771.63;;;9.31;37.92
37856;BME280;23694;43.274;26.924;2024-01-15T12:52:09;97773.66;;;9.28;38.06
37856;BME280;23694;43.274;26.924;2024-01-15T12:54:35;97764.75;;;9.30;37.44
37856;BME280;23694;43.274;26.924;2024-01-15T12:57:02;97770.75;;;9.63;37.35
37856;BME280;23694;43.274;26.924;2024-01-15T12:59:28;97774.25;;;10.75;36.40